KGYR/GYR METAR and TAF weather

Enter ICAO airport designator
Station Type Date Time Source
KGYR METAR 2019/05/19 20:47 UTC NOAA

KGYR 192047Z 23010G23KT 10SM BKN100 BKN200 27/01 A2977


Station Type Date Time Source
KGYR Decoded METAR 2019/05/19 20:47 UTC NOAA

Goodyear Municipal, AZ, United States (KGYR) 33-25N 112-23W
May 19, 2019 - 04:47 PM EDT / 2019.05.19 2047 UTC
Wind: from the SW (230 degrees) at 12 MPH (10 KT) gusting to 26 MPH (23 KT):0
Visibility: 10 mile(s):0
Sky conditions: mostly cloudy
Temperature: 80 F (27 C)
Dew Point: 33 F (1 C)
Relative Humidity: 18%
Pressure (altimeter): 29.77 in. Hg (1008 hPa)
ob: KGYR 192047Z 23010G23KT 10SM BKN100 BKN200 27/01 A2977
cycle: 21

Station Type Date Time Source
KGYR TAF UTC NOAA

Error!

Example: see airport list